logo
Rechercher aéroport 
image banner adimage banner adimage banner ad
image banner ad

O79 - Sierraville Dearwater

Situé à Sierraville, United States

ICAO - O79, IATA -

Données fournies par Airmate  

Information générale

Coordonnées: N39°34'54" W120°21'15"
Élévation : 4984 feet MSL.
Variation magnétique : 16° East
Voir autres Aéroports à California

Données opérationnelles

Special qualification required
Heure actuelle UTC:
Heure actuelle locale:
Météo à : KTRK - Truckee-Tahoe ( 34 km )
METAR: KTRK 011545Z 00000KT 10SM CLR 05/01 A3013
TAF: KTRK 011120Z 0112/0212 VRB02KT P6SM VCFG SKC FM011400 VRB05KT P6SM SKC
Voir NOTAMs / SUP AIP / TFR affectant cet aéroport [VIEW]
Fréquences de communication: [VIEW]

Pistes:

Identifiant RWYQFULongueur (ft)Largeur (ft)SurfaceLDA (ft)
03326050ASPH
21326050ASPH

Coordonnées de l'aéroport

Adresse: Sierraville United States

Vue satellite de O79